Terminal Aerodrome Forecast
Issued by NWS

Current Version | Previous Version | Text Only | Print | Product List | Glossary On
Versions: 1 2 3 4 5 6 7 8 9 10 11 12 13
000
FTUS44 KEPZ 210500
TAFTCS
TAF
KTCS 210532Z 2106/2206 33004KT P6SM VCSH SCT035 BKN050
     FM211200 30007KT P6SM BKN050
     FM211800 16010KT P6SM VCTS SCT040CB BKN100
     FM220300 28008KT P6SM SCT040 BKN100=

USA.gov is the U.S. government's official web portal to all federal, state and local government web resources and services.